sensor_id;sensor_type;location;lat;lon;timestamp;pressure;altitude;pressure_sealevel;temperature;humidity
51261;BME280;61705;46.228;24.812;2023-02-12T00:02:02;98656.75;;;-4.55;85.59
51261;BME280;61705;46.228;24.812;2023-02-12T00:04:29;98662.63;;;-4.61;84.92
51261;BME280;61705;46.228;24.812;2023-02-12T00:06:55;98655.84;;;-4.57;85.12
51261;BME280;61705;46.228;24.812;2023-02-12T00:09:22;98666.31;;;-4.53;85.53
51261;BME280;61705;46.228;24.812;2023-02-12T00:11:49;98661.97;;;-4.54;84.83
51261;BME280;61705;46.228;24.812;2023-02-12T00:14:16;98663.78;;;-4.51;85.28
51261;BME280;61705;46.228;24.812;2023-02-12T00:16:43;98662.97;;;-4.48;85.51
51261;BME280;61705;46.228;24.812;2023-02-12T00:19:09;98670.78;;;-4.47;84.81
51261;BME280;61705;46.228;24.812;2023-02-12T00:21:36;98668.97;;;-4.49;84.45
51261;BME280;61705;46.228;24.812;2023-02-12T00:24:03;98665.44;;;-4.53;84.38
51261;BME280;61705;46.228;24.812;2023-02-12T00:26:30;98671.44;;;-4.54;84.32
51261;BME280;61705;46.228;24.812;2023-02-12T00:28:56;98662.81;;;-4.55;84.65
51261;BME280;61705;46.228;24.812;2023-02-12T00:31:25;98668.03;;;-4.52;84.76
51261;BME280;61705;46.228;24.812;2023-02-12T00:33:54;98671.59;;;-4.48;84.80
51261;BME280;61705;46.228;24.812;2023-02-12T00:36:24;98673.38;;;-4.47;86.21
51261;BME280;61705;46.228;24.812;2023-02-12T00:38:52;98671.78;;;-4.42;87.07
51261;BME280;61705;46.228;24.812;2023-02-12T00:41:20;98660.66;;;-4.41;88.27
51261;BME280;61705;46.228;24.812;2023-02-12T00:43:47;98671.78;;;-4.42;88.37
51261;BME280;61705;46.228;24.812;2023-02-12T00:46:14;98664.91;;;-4.41;88.44
51261;BME280;61705;46.228;24.812;2023-02-12T00:48:41;98660.59;;;-4.42;88.60
51261;BME280;61705;46.228;24.812;2023-02-12T00:51:08;98667.34;;;-4.47;88.37
51261;BME280;61705;46.228;24.812;2023-02-12T00:53:35;98663.91;;;-4.46;88.85
51261;BME280;61705;46.228;24.812;2023-02-12T00:56:02;98664.56;;;-4.54;88.84
51261;BME280;61705;46.228;24.812;2023-02-12T00:58:29;98658.69;;;-4.48;89.63
51261;BME280;61705;46.228;24.812;2023-02-12T01:00:56;98663.84;;;-4.48;90.09
51261;BME280;61705;46.228;24.812;2023-02-12T01:03:24;98652.81;;;-4.44;90.61
51261;BME280;61705;46.228;24.812;2023-02-12T01:05:51;98639.00;;;-4.46;90.89
51261;BME280;61705;46.228;24.812;2023-02-12T01:08:18;98642.44;;;-4.45;90.99
51261;BME280;61705;46.228;24.812;2023-02-12T01:10:53;98647.56;;;-4.47;91.26
51261;BME280;61705;46.228;24.812;2023-02-12T01:13:20;98651.03;;;-4.46;91.07
51261;BME280;61705;46.228;24.812;2023-02-12T01:15:47;98656.09;;;-4.48;90.87
51261;BME280;61705;46.228;24.812;2023-02-12T01:18:13;98646.53;;;-4.52;90.66
51261;BME280;61705;46.228;24.812;2023-02-12T01:20:41;98638.72;;;-4.55;89.96
51261;BME280;61705;46.228;24.812;2023-02-12T01:23:08;98641.19;;;-4.58;89.56
51261;BME280;61705;46.228;24.812;2023-02-12T01:25:37;98632.56;;;-4.60;88.56
51261;BME280;61705;46.228;24.812;2023-02-12T01:28:04;98630.09;;;-4.56;88.71
51261;BME280;61705;46.228;24.812;2023-02-12T01:30:30;98630.94;;;-4.57;89.17
51261;BME280;61705;46.228;24.812;2023-02-12T01:32:57;98637.81;;;-4.57;89.51
51261;BME280;61705;46.228;24.812;2023-02-12T01:35:24;98622.56;;;-4.49;90.18
51261;BME280;61705;46.228;24.812;2023-02-12T01:37:50;98612.25;;;-4.49;90.10
51261;BME280;61705;46.228;24.812;2023-02-12T01:40:17;98619.09;;;-4.50;90.53
51261;BME280;61705;46.228;24.812;2023-02-12T01:42:46;98615.69;;;-4.49;90.78
51261;BME280;61705;46.228;24.812;2023-02-12T01:47:41;98615.66;;;-4.50;90.96
51261;BME280;61705;46.228;24.812;2023-02-12T01:50:11;98607.72;;;-4.57;91.05
51261;BME280;61705;46.228;24.812;2023-02-12T01:52:43;98605.03;;;-4.61;91.14
51261;BME280;61705;46.228;24.812;2023-02-12T01:55:12;98606.56;;;-4.68;91.00
51261;BME280;61705;46.228;24.812;2023-02-12T01:57:41;98606.66;;;-4.65;90.95
51261;BME280;61705;46.228;24.812;2023-02-12T02:00:12;98615.16;;;-4.67;91.28
51261;BME280;61705;46.228;24.812;2023-02-12T02:02:42;98614.38;;;-4.65;91.43
51261;BME280;61705;46.228;24.812;2023-02-12T02:05:09;98608.41;;;-4.62;91.64
51261;BME280;61705;46.228;24.812;2023-02-12T02:07:38;98629.97;;;-4.60;92.26
51261;BME280;61705;46.228;24.812;2023-02-12T02:10:07;98628.84;;;-4.68;92.32
51261;BME280;61705;46.228;24.812;2023-02-12T02:12:34;98636.84;;;-4.61;92.59
51261;BME280;61705;46.228;24.812;2023-02-12T02:15:20;98620.53;;;-4.60;92.67
51261;BME280;61705;46.228;24.812;2023-02-12T02:32:35;98625.66;;;-4.61;93.09
51261;BME280;61705;46.228;24.812;2023-02-12T02:35:14;98628.19;;;-4.63;93.09
51261;BME280;61705;46.228;24.812;2023-02-12T02:37:56;98625.50;;;-4.66;92.96
51261;BME280;61705;46.228;24.812;2023-02-12T02:40:31;98624.59;;;-4.68;92.87
51261;BME280;61705;46.228;24.812;2023-02-12T02:43:04;98617.88;;;-4.63;92.59
51261;BME280;61705;46.228;24.812;2023-02-12T02:45:39;98619.47;;;-4.66;92.60
51261;BME280;61705;46.228;24.812;2023-02-12T02:50:42;98616.91;;;-4.66;92.27
51261;BME280;61705;46.228;24.812;2023-02-12T02:53:15;98616.88;;;-4.68;92.51
51261;BME280;61705;46.228;24.812;2023-02-12T02:55:50;98619.44;;;-4.68;92.80
51261;BME280;61705;46.228;24.812;2023-02-12T02:58:25;98634.09;;;-4.65;92.72
51261;BME280;61705;46.228;24.812;2023-02-12T03:01:00;98633.41;;;-4.61;93.25
51261;BME280;61705;46.228;24.812;2023-02-12T03:03:53;98623.03;;;-4.63;93.50
51261;BME280;61705;46.228;24.812;2023-02-12T03:09:05;98632.44;;;-4.65;93.55
51261;BME280;61705;46.228;24.812;2023-02-12T03:11:35;98628.28;;;-4.60;93.60
51261;BME280;61705;46.228;24.812;2023-02-12T03:14:25;98644.69;;;-4.58;94.09
51261;BME280;61705;46.228;24.812;2023-02-12T03:17:07;98639.66;;;-4.53;94.09
51261;BME280;61705;46.228;24.812;2023-02-12T03:19:41;98655.16;;;-4.52;94.17
51261;BME280;61705;46.228;24.812;2023-02-12T03:22:14;98653.47;;;-4.51;94.03
51261;BME280;61705;46.228;24.812;2023-02-12T03:29:51;98651.69;;;-4.52;93.79
51261;BME280;61705;46.228;24.812;2023-02-12T03:32:40;98655.16;;;-4.52;93.79
51261;BME280;61705;46.228;24.812;2023-02-12T03:35:32;98655.78;;;-4.60;93.65
51261;BME280;61705;46.228;24.812;2023-02-12T03:38:19;98649.66;;;-4.64;93.65
51261;BME280;61705;46.228;24.812;2023-02-12T03:41:04;98648.78;;;-4.64;93.68
51261;BME280;61705;46.228;24.812;2023-02-12T03:46:09;98657.56;;;-4.58;93.74
51261;BME280;61705;46.228;24.812;2023-02-12T03:51:37;98654.19;;;-4.55;93.54
51261;BME280;61705;46.228;24.812;2023-02-12T03:54:07;98656.06;;;-4.51;93.62
51261;BME280;61705;46.228;24.812;2023-02-12T03:56:54;98651.78;;;-4.49;93.73
51261;BME280;61705;46.228;24.812;2023-02-12T03:59:23;98655.16;;;-4.52;93.62
51261;BME280;61705;46.228;24.812;2023-02-12T04:01:52;98656.09;;;-4.48;93.84
51261;BME280;61705;46.228;24.812;2023-02-12T04:04:20;98660.47;;;-4.47;93.82
51261;BME280;61705;46.228;24.812;2023-02-12T04:06:49;98670.81;;;-4.45;93.85
51261;BME280;61705;46.228;24.812;2023-02-12T04:09:17;98674.25;;;-4.45;93.92
51261;BME280;61705;46.228;24.812;2023-02-12T04:12:03;98673.38;;;-4.45;93.83
51261;BME280;61705;46.228;24.812;2023-02-12T04:14:40;98668.28;;;-4.44;93.95
51261;BME280;61705;46.228;24.812;2023-02-12T04:20:35;98675.31;;;-4.38;93.89
51261;BME280;61705;46.228;24.812;2023-02-12T04:23:17;98682.09;;;-4.42;93.82
51261;BME280;61705;46.228;24.812;2023-02-12T04:26:10;98681.22;;;-4.42;93.87
51261;BME280;61705;46.228;24.812;2023-02-12T04:35:02;98684.88;;;-4.36;93.73
51261;BME280;61705;46.228;24.812;2023-02-12T04:37:23;98677.91;;;-4.38;93.64
51261;BME280;61705;46.228;24.812;2023-02-12T04:39:52;98690.06;;;-4.34;93.81
51261;BME280;61705;46.228;24.812;2023-02-12T04:42:20;98691.66;;;-4.38;93.65
51261;BME280;61705;46.228;24.812;2023-02-12T04:44:46;98689.06;;;-4.39;93.57
51261;BME280;61705;46.228;24.812;2023-02-12T04:47:16;98692.56;;;-4.37;93.48
51261;BME280;61705;46.228;24.812;2023-02-12T04:49:42;98695.09;;;-4.39;93.16
51261;BME280;61705;46.228;24.812;2023-02-12T04:52:09;98699.41;;;-4.38;93.34
51261;BME280;61705;46.228;24.812;2023-02-12T04:54:36;98700.25;;;-4.39;93.50
51261;BME280;61705;46.228;24.812;2023-02-12T04:57:04;98702.91;;;-4.36;93.71
51261;BME280;61705;46.228;24.812;2023-02-12T04:59:30;98698.63;;;-4.35;93.46
51261;BME280;61705;46.228;24.812;2023-02-12T05:01:57;98697.66;;;-4.39;93.43
51261;BME280;61705;46.228;24.812;2023-02-12T05:04:26;98700.22;;;-4.40;93.34
51261;BME280;61705;46.228;24.812;2023-02-12T05:06:52;98707.25;;;-4.35;93.13
51261;BME280;61705;46.228;24.812;2023-02-12T05:09:19;98714.22;;;-4.32;93.32
51261;BME280;61705;46.228;24.812;2023-02-12T05:11:46;98707.31;;;-4.33;93.07
51261;BME280;61705;46.228;24.812;2023-02-12T05:14:13;98713.34;;;-4.33;93.16
51261;BME280;61705;46.228;24.812;2023-02-12T05:16:42;98700.31;;;-4.37;92.11
51261;BME280;61705;46.228;24.812;2023-02-12T05:19:09;98685.72;;;-4.35;92.01
51261;BME280;61705;46.228;24.812;2023-02-12T05:21:37;98687.56;;;-4.31;91.60
51261;BME280;61705;46.228;24.812;2023-02-12T05:24:04;98692.00;;;-4.27;91.01
51261;BME280;61705;46.228;24.812;2023-02-12T05:26:31;98691.19;;;-4.24;90.63
51261;BME280;61705;46.228;24.812;2023-02-12T05:28:57;98694.59;;;-4.27;90.66
51261;BME280;61705;46.228;24.812;2023-02-12T05:31:24;98698.13;;;-4.23;90.48
51261;BME280;61705;46.228;24.812;2023-02-12T05:33:51;98714.50;;;-4.23;90.70
51261;BME280;61705;46.228;24.812;2023-02-12T05:36:21;98733.31;;;-4.25;90.79
51261;BME280;61705;46.228;24.812;2023-02-12T05:38:48;98734.38;;;-4.19;90.93
51261;BME280;61705;46.228;24.812;2023-02-12T05:41:18;98732.97;;;-4.09;90.53
51261;BME280;61705;46.228;24.812;2023-02-12T05:43:45;98735.75;;;-4.01;90.47
51261;BME280;61705;46.228;24.812;2023-02-12T05:46:15;98734.78;;;-4.05;90.60
51261;BME280;61705;46.228;24.812;2023-02-12T05:48:43;98734.81;;;-4.03;90.66
51261;BME280;61705;46.228;24.812;2023-02-12T05:51:15;98734.78;;;-4.05;90.79
51261;BME280;61705;46.228;24.812;2023-02-12T05:53:42;98739.09;;;-4.06;90.67
51261;BME280;61705;46.228;24.812;2023-02-12T05:56:10;98746.81;;;-4.06;90.80
51261;BME280;61705;46.228;24.812;2023-02-12T05:58:38;98757.28;;;-4.01;90.91
51261;BME280;61705;46.228;24.812;2023-02-12T06:01:25;98757.25;;;-4.02;91.10
51261;BME280;61705;46.228;24.812;2023-02-12T06:03:52;98756.53;;;-3.97;90.88
51261;BME280;61705;46.228;24.812;2023-02-12T06:06:19;98758.41;;;-3.93;91.03
51261;BME280;61705;46.228;24.812;2023-02-12T06:08:49;98748.28;;;-3.85;90.82
51261;BME280;61705;46.228;24.812;2023-02-12T06:11:16;98762.91;;;-3.86;91.03
51261;BME280;61705;46.228;24.812;2023-02-12T06:13:44;98758.72;;;-3.81;90.77
51261;BME280;61705;46.228;24.812;2023-02-12T06:16:21;98773.38;;;-3.79;90.81
51261;BME280;61705;46.228;24.812;2023-02-12T06:18:49;98784.38;;;-3.87;90.71
51261;BME280;61705;46.228;24.812;2023-02-12T06:21:17;98778.59;;;-3.78;91.14
51261;BME280;61705;46.228;24.812;2023-02-12T06:23:45;98775.28;;;-3.74;90.64
51261;BME280;61705;46.228;24.812;2023-02-12T06:26:13;98788.38;;;-3.68;91.01
51261;BME280;61705;46.228;24.812;2023-02-12T06:28:40;98797.84;;;-3.67;90.70
51261;BME280;61705;46.228;24.812;2023-02-12T06:31:39;98799.63;;;-3.66;90.58
51261;BME280;61705;46.228;24.812;2023-02-12T06:34:10;98793.81;;;-3.59;90.75
51261;BME280;61705;46.228;24.812;2023-02-12T06:36:40;98793.16;;;-3.51;90.42
51261;BME280;61705;46.228;24.812;2023-02-12T06:39:07;98793.94;;;-3.52;90.58
51261;BME280;61705;46.228;24.812;2023-02-12T06:41:34;98795.72;;;-3.51;90.85
51261;BME280;61705;46.228;24.812;2023-02-12T06:44:01;98800.16;;;-3.47;90.96
51261;BME280;61705;46.228;24.812;2023-02-12T06:46:27;98800.84;;;-3.53;90.63
51261;BME280;61705;46.228;24.812;2023-02-12T06:48:56;98809.72;;;-3.43;90.95
51261;BME280;61705;46.228;24.812;2023-02-12T06:51:23;98808.84;;;-3.44;90.83
51261;BME280;61705;46.228;24.812;2023-02-12T06:53:51;98814.88;;;-3.45;90.73
51261;BME280;61705;46.228;24.812;2023-02-12T06:56:20;98824.44;;;-3.41;90.66
51261;BME280;61705;46.228;24.812;2023-02-12T06:58:53;98820.34;;;-3.33;90.79
51261;BME280;61705;46.228;24.812;2023-02-12T07:01:23;98826.47;;;-3.29;90.75
51261;BME280;61705;46.228;24.812;2023-02-12T07:03:53;98827.44;;;-3.25;90.67
51261;BME280;61705;46.228;24.812;2023-02-12T07:06:21;98823.97;;;-3.27;90.48
51261;BME280;61705;46.228;24.812;2023-02-12T07:08:48;98830.19;;;-3.21;90.77
51261;BME280;61705;46.228;24.812;2023-02-12T07:11:15;98823.31;;;-3.19;90.36
51261;BME280;61705;46.228;24.812;2023-02-12T07:13:42;98830.25;;;-3.18;90.37
51261;BME280;61705;46.228;24.812;2023-02-12T07:16:12;98831.34;;;-3.10;90.18
51261;BME280;61705;46.228;24.812;2023-02-12T07:18:39;98826.25;;;-3.06;90.12
51261;BME280;61705;46.228;24.812;2023-02-12T07:21:10;98820.31;;;-3.02;89.99
51261;BME280;61705;46.228;24.812;2023-02-12T07:23:37;98822.41;;;-2.89;90.21
51261;BME280;61705;46.228;24.812;2023-02-12T07:26:07;98824.38;;;-2.79;90.14
51261;BME280;61705;46.228;24.812;2023-02-12T07:28:34;98829.31;;;-2.88;89.72
51261;BME280;61705;46.228;24.812;2023-02-12T07:31:18;98829.19;;;-2.93;89.42
51261;BME280;61705;46.228;24.812;2023-02-12T07:33:45;98830.09;;;-2.91;89.27
51261;BME280;61705;46.228;24.812;2023-02-12T07:36:14;98827.69;;;-2.84;89.32
51261;BME280;61705;46.228;24.812;2023-02-12T07:38:42;98835.72;;;-2.74;89.14
51261;BME280;61705;46.228;24.812;2023-02-12T07:43:41;98833.69;;;-2.52;88.74
51261;BME280;61705;46.228;24.812;2023-02-12T07:46:17;98828.63;;;-2.48;88.62
51261;BME280;61705;46.228;24.812;2023-02-12T07:48:44;98837.56;;;-2.35;88.46
51261;BME280;61705;46.228;24.812;2023-02-12T07:51:14;98844.53;;;-2.32;88.36
51261;BME280;61705;46.228;24.812;2023-02-12T07:53:41;98847.31;;;-2.25;88.25
51261;BME280;61705;46.228;24.812;2023-02-12T07:56:17;98844.81;;;-2.20;88.17
51261;BME280;61705;46.228;24.812;2023-02-12T07:58:45;98850.91;;;-2.18;87.97
51261;BME280;61705;46.228;24.812;2023-02-12T08:01:14;98864.84;;;-2.13;87.97
51261;BME280;61705;46.228;24.812;2023-02-12T08:03:41;98864.13;;;-2.06;87.94
51261;BME280;61705;46.228;24.812;2023-02-12T08:06:12;98867.56;;;-2.07;87.76
51261;BME280;61705;46.228;24.812;2023-02-12T08:08:39;98871.81;;;-2.09;87.52
51261;BME280;61705;46.228;24.812;2023-02-12T08:11:07;98870.97;;;-2.09;87.39
51261;BME280;61705;46.228;24.812;2023-02-12T08:13:35;98879.56;;;-2.10;86.72
51261;BME280;61705;46.228;24.812;2023-02-12T08:16:03;98882.09;;;-2.12;86.51
51261;BME280;61705;46.228;24.812;2023-02-12T08:18:31;98883.91;;;-2.09;85.91
51261;BME280;61705;46.228;24.812;2023-02-12T08:21:08;98878.84;;;-2.05;85.84
51261;BME280;61705;46.228;24.812;2023-02-12T08:23:36;98880.75;;;-1.98;85.53
51261;BME280;61705;46.228;24.812;2023-02-12T08:26:14;98880.69;;;-1.99;85.33
51261;BME280;61705;46.228;24.812;2023-02-12T08:28:43;98880.84;;;-1.93;85.36
51261;BME280;61705;46.228;24.812;2023-02-12T08:31:16;98884.22;;;-1.96;85.04
51261;BME280;61705;46.228;24.812;2023-02-12T08:33:45;98896.38;;;-1.93;84.95
51261;BME280;61705;46.228;24.812;2023-02-12T08:36:14;98901.66;;;-1.88;85.02
51261;BME280;61705;46.228;24.812;2023-02-12T08:38:45;98910.25;;;-1.91;84.98
51261;BME280;61705;46.228;24.812;2023-02-12T08:41:14;98914.69;;;-1.85;85.20
51261;BME280;61705;46.228;24.812;2023-02-12T08:43:42;98911.28;;;-1.84;84.90
51261;BME280;61705;46.228;24.812;2023-02-12T08:46:17;98909.56;;;-1.84;84.81
51261;BME280;61705;46.228;24.812;2023-02-12T08:48:45;98908.00;;;-1.77;84.76
51261;BME280;61705;46.228;24.812;2023-02-12T08:51:30;98902.19;;;-1.67;84.52
51261;BME280;61705;46.228;24.812;2023-02-12T08:53:59;98907.63;;;-1.55;84.16
51261;BME280;61705;46.228;24.812;2023-02-12T08:56:28;98899.28;;;-1.41;84.00
51261;BME280;61705;46.228;24.812;2023-02-12T08:58:59;98906.22;;;-1.40;83.54
51261;BME280;61705;46.228;24.812;2023-02-12T09:01:28;98917.63;;;-1.32;83.51
51261;BME280;61705;46.228;24.812;2023-02-12T09:03:57;98927.28;;;-1.25;83.25
51261;BME280;61705;46.228;24.812;2023-02-12T09:06:33;98927.53;;;-1.14;83.29
51261;BME280;61705;46.228;24.812;2023-02-12T09:09:01;98942.28;;;-1.10;83.08
51261;BME280;61705;46.228;24.812;2023-02-12T09:11:32;98944.09;;;-1.08;83.48
51261;BME280;61705;46.228;24.812;2023-02-12T09:14:01;98943.41;;;-0.99;83.25
51261;BME280;61705;46.228;24.812;2023-02-12T09:16:30;98945.41;;;-0.86;83.41
51261;BME280;61705;46.228;24.812;2023-02-12T09:18:57;98944.47;;;-0.89;82.95
51261;BME280;61705;46.228;24.812;2023-02-12T09:21:27;98956.41;;;-0.98;82.68
51261;BME280;61705;46.228;24.812;2023-02-12T09:23:54;98959.84;;;-0.99;82.29
51261;BME280;61705;46.228;24.812;2023-02-12T09:26:23;98964.34;;;-0.90;82.24
51261;BME280;61705;46.228;24.812;2023-02-12T09:28:52;98961.72;;;-0.91;82.14
51261;BME280;61705;46.228;24.812;2023-02-12T09:31:24;98961.88;;;-0.85;82.21
51261;BME280;61705;46.228;24.812;2023-02-12T09:33:59;98963.81;;;-0.75;82.20
51261;BME280;61705;46.228;24.812;2023-02-12T09:36:27;98963.88;;;-0.70;81.99
51261;BME280;61705;46.228;24.812;2023-02-12T09:38:54;98971.63;;;-0.72;81.97
51261;BME280;61705;46.228;24.812;2023-02-12T09:41:48;98965.81;;;-0.60;82.08
51261;BME280;61705;46.228;24.812;2023-02-12T09:44:25;98967.06;;;-0.40;81.64
51261;BME280;61705;46.228;24.812;2023-02-12T09:47:02;98963.75;;;-0.31;81.27
51261;BME280;61705;46.228;24.812;2023-02-12T09:52:17;98977.16;;;-0.08;80.82
51261;BME280;61705;46.228;24.812;2023-02-12T09:54:45;98979.13;;;0.05;80.52
51261;BME280;61705;46.228;24.812;2023-02-12T09:57:33;98973.38;;;0.23;80.46
51261;BME280;61705;46.228;24.812;2023-02-12T10:00:10;98970.06;;;0.33;79.84
51261;BME280;61705;46.228;24.812;2023-02-12T10:02:40;98969.53;;;0.54;80.26
51261;BME280;61705;46.228;24.812;2023-02-12T10:05:18;98973.75;;;0.46;79.70
51261;BME280;61705;46.228;24.812;2023-02-12T10:24:43;98976.19;;;0.93;76.99
51261;BME280;61705;46.228;24.812;2023-02-12T10:27:16;98981.25;;;0.84;76.77
51261;BME280;61705;46.228;24.812;2023-02-12T10:29:46;98980.56;;;0.97;76.60
51261;BME280;61705;46.228;24.812;2023-02-12T10:32:23;98989.44;;;1.11;76.07
51261;BME280;61705;46.228;24.812;2023-02-12T10:34:55;98984.91;;;0.98;75.95
51261;BME280;61705;46.228;24.812;2023-02-12T10:37:34;98978.78;;;0.94;76.13
51261;BME280;61705;46.228;24.812;2023-02-12T10:40:19;98974.53;;;1.01;75.84
51261;BME280;61705;46.228;24.812;2023-02-12T10:42:49;98966.78;;;1.04;76.00
51261;BME280;61705;46.228;24.812;2023-02-12T10:45:29;98965.78;;;0.94;76.12
51261;BME280;61705;46.228;24.812;2023-02-12T10:48:16;98975.25;;;0.89;76.08
51261;BME280;61705;46.228;24.812;2023-02-12T10:50:51;98977.72;;;0.80;75.56
51261;BME280;61705;46.228;24.812;2023-02-12T10:53:44;98972.72;;;0.92;75.41
51261;BME280;61705;46.228;24.812;2023-02-12T11:01:38;98985.97;;;1.12;75.26
51261;BME280;61705;46.228;24.812;2023-02-12T11:04:26;98993.97;;;1.28;74.88
51261;BME280;61705;46.228;24.812;2023-02-12T11:07:03;98994.84;;;1.27;74.96
51261;BME280;61705;46.228;24.812;2023-02-12T11:09:42;98996.50;;;1.20;75.04
51261;BME280;61705;46.228;24.812;2023-02-12T11:12:32;98988.75;;;1.26;75.00
51261;BME280;61705;46.228;24.812;2023-02-12T11:15:19;98989.78;;;1.39;74.70
51261;BME280;61705;46.228;24.812;2023-02-12T11:17:59;98981.97;;;1.39;74.26
51261;BME280;61705;46.228;24.812;2023-02-12T11:20:38;98982.16;;;1.56;73.88
51261;BME280;61705;46.228;24.812;2023-02-12T11:23:24;98984.84;;;1.62;73.95
51261;BME280;61705;46.228;24.812;2023-02-12T11:28:57;99003.75;;;1.44;73.72
51261;BME280;61705;46.228;24.812;2023-02-12T11:31:32;99002.81;;;1.39;73.89
51261;BME280;61705;46.228;24.812;2023-02-12T11:34:17;98991.28;;;1.22;73.88
51261;BME280;61705;46.228;24.812;2023-02-12T11:36:50;98998.09;;;1.10;74.53
51261;BME280;61705;46.228;24.812;2023-02-12T11:39:25;99000.66;;;1.07;74.83
51261;BME280;61705;46.228;24.812;2023-02-12T11:41:56;98999.88;;;1.13;74.70
51261;BME280;61705;46.228;24.812;2023-02-12T11:44:36;98998.06;;;1.09;74.79
51261;BME280;61705;46.228;24.812;2023-02-12T11:47:06;98993.72;;;1.09;74.34
51261;BME280;61705;46.228;24.812;2023-02-12T11:53:15;98988.50;;;1.08;74.03
51261;BME280;61705;46.228;24.812;2023-02-12T11:56:14;98986.53;;;0.91;74.70
51261;BME280;61705;46.228;24.812;2023-02-12T11:58:41;98998.59;;;0.83;75.18
51261;BME280;61705;46.228;24.812;2023-02-12T12:01:31;98977.72;;;0.80;75.29
51261;BME280;61705;46.228;24.812;2023-02-12T12:04:13;98971.03;;;0.98;75.01
51261;BME280;61705;46.228;24.812;2023-02-12T12:11:15;98984.44;;;1.28;73.53
51261;BME280;61705;46.228;24.812;2023-02-12T12:13:48;98980.09;;;1.27;73.07
51261;BME280;61705;46.228;24.812;2023-02-12T12:16:23;98974.84;;;1.26;72.82
51261;BME280;61705;46.228;24.812;2023-02-12T12:19:19;98972.16;;;1.19;72.84
51261;BME280;61705;46.228;24.812;2023-02-12T12:22:18;98973.91;;;1.19;72.67
51261;BME280;61705;46.228;24.812;2023-02-12T13:16:53;99027.22;;;1.50;71.10
51261;BME280;61705;46.228;24.812;2023-02-12T13:27:21;99035.13;;;1.55;71.66
51261;BME280;61705;46.228;24.812;2023-02-12T13:29:58;99029.91;;;1.55;71.72
51261;BME280;61705;46.228;24.812;2023-02-12T13:32:40;99037.66;;;1.49;71.97
51261;BME280;61705;46.228;24.812;2023-02-12T13:35:20;99035.91;;;1.48;72.10
51261;BME280;61705;46.228;24.812;2023-02-12T13:37:53;99028.97;;;1.50;71.89
51261;BME280;61705;46.228;24.812;2023-02-12T13:40:22;99034.19;;;1.48;72.14
51261;BME280;61705;46.228;24.812;2023-02-12T13:45:29;99045.34;;;1.39;72.60
51261;BME280;61705;46.228;24.812;2023-02-12T13:48:32;99049.53;;;1.30;72.64
51261;BME280;61705;46.228;24.812;2023-02-12T13:51:35;99048.53;;;1.18;72.95
51261;BME280;61705;46.228;24.812;2023-02-12T13:54:23;99054.66;;;1.22;73.21
51261;BME280;61705;46.228;24.812;2023-02-12T13:56:59;99042.50;;;1.21;73.27
51261;BME280;61705;46.228;24.812;2023-02-12T14:04:55;99058.13;;;1.21;73.18
51261;BME280;61705;46.228;24.812;2023-02-12T14:10:23;99058.94;;;1.18;73.34
51261;BME280;61705;46.228;24.812;2023-02-12T14:12:52;99060.69;;;1.18;73.00
51261;BME280;61705;46.228;24.812;2023-02-12T14:15:31;99068.38;;;1.12;72.92
51261;BME280;61705;46.228;24.812;2023-02-12T14:20:35;99074.34;;;1.05;73.45
51261;BME280;61705;46.228;24.812;2023-02-12T14:23:26;99070.03;;;1.04;73.23
51261;BME280;61705;46.228;24.812;2023-02-12T14:26:00;99064.72;;;0.99;73.14
51261;BME280;61705;46.228;24.812;2023-02-12T14:28:33;99066.41;;;0.95;73.32
51261;BME280;61705;46.228;24.812;2023-02-12T14:33:51;99065.56;;;0.97;73.00
51261;BME280;61705;46.228;24.812;2023-02-12T14:36:36;99075.13;;;0.98;72.90
51261;BME280;61705;46.228;24.812;2023-02-12T14:41:51;99072.53;;;0.98;73.04
51261;BME280;61705;46.228;24.812;2023-02-12T14:46:55;99077.56;;;0.88;73.14
51261;BME280;61705;46.228;24.812;2023-02-12T14:49:38;99081.91;;;0.88;73.69
51261;BME280;61705;46.228;24.812;2023-02-12T14:54:45;99076.44;;;0.71;73.83
51261;BME280;61705;46.228;24.812;2023-02-12T14:57:28;99080.69;;;0.66;73.89
51261;BME280;61705;46.228;24.812;2023-02-12T15:00:03;99091.22;;;0.72;74.03
51261;BME280;61705;46.228;24.812;2023-02-12T15:02:33;99095.34;;;0.61;74.21
51261;BME280;61705;46.228;24.812;2023-02-12T15:05:11;99102.84;;;0.44;74.83
51261;BME280;61705;46.228;24.812;2023-02-12T15:07:48;99106.13;;;0.32;75.16
51261;BME280;61705;46.228;24.812;2023-02-12T15:10:19;99105.38;;;0.39;75.04
51261;BME280;61705;46.228;24.812;2023-02-12T15:15:32;99115.84;;;0.44;75.29
51261;BME280;61705;46.228;24.812;2023-02-12T15:18:19;99122.59;;;0.33;75.55
51261;BME280;61705;46.228;24.812;2023-02-12T15:21:26;99122.13;;;0.08;75.95
51261;BME280;61705;46.228;24.812;2023-02-12T15:24:05;99128.56;;;-0.17;76.73
51261;BME280;61705;46.228;24.812;2023-02-12T15:26:39;99138.63;;;-0.32;77.66
51261;BME280;61705;46.228;24.812;2023-02-12T15:29:19;99135.72;;;-0.46;77.52
51261;BME280;61705;46.228;24.812;2023-02-12T15:32:01;99142.28;;;-0.62;77.92
51261;BME280;61705;46.228;24.812;2023-02-12T15:34:31;99143.84;;;-0.68;78.23
51261;BME280;61705;46.228;24.812;2023-02-12T15:37:04;99139.28;;;-0.79;78.64
51261;BME280;61705;46.228;24.812;2023-02-12T15:39:55;99150.28;;;-0.90;79.22
51261;BME280;61705;46.228;24.812;2023-02-12T15:42:33;99147.28;;;-1.07;79.63
51261;BME280;61705;46.228;24.812;2023-02-12T15:45:31;99157.41;;;-1.18;81.70
51261;BME280;61705;46.228;24.812;2023-02-12T15:48:28;99160.50;;;-1.31;82.45
51261;BME280;61705;46.228;24.812;2023-02-12T15:51:07;99156.81;;;-1.41;82.38
51261;BME280;61705;46.228;24.812;2023-02-12T15:53:55;99161.88;;;-1.46;82.15
51261;BME280;61705;46.228;24.812;2023-02-12T15:56:33;99161.59;;;-1.56;81.90
51261;BME280;61705;46.228;24.812;2023-02-12T16:02:18;99172.50;;;-1.68;82.39
51261;BME280;61705;46.228;24.812;2023-02-12T16:05:02;99177.69;;;-1.68;82.16
51261;BME280;61705;46.228;24.812;2023-02-12T16:11:20;99184.09;;;-1.85;83.13
51261;BME280;61705;46.228;24.812;2023-02-12T16:14:12;99187.28;;;-1.96;83.53
51261;BME280;61705;46.228;24.812;2023-02-12T16:17:35;99187.03;;;-2.05;83.98
51261;BME280;61705;46.228;24.812;2023-02-12T16:24:01;99199.63;;;-2.17;83.94